TimeCST,TemperatureF,Dew PointF,Humidity,Sea Level PressureIn,VisibilityMPH,Wind Direction,Wind SpeedMPH,Gust SpeedMPH,PrecipitationIn,Events,Conditions,WindDirDegrees,DateUTC
12:15 AM,42.8,32.0,66,29.85,10.0,ESE,5.8,-,N/A,,Clear,110,2012-12-01 06:15:00
12:35 AM,41.0,30.2,65,29.84,10.0,ESE,6.9,-,N/A,,Clear,110,2012-12-01 06:35:00
12:55 AM,41.0,30.2,65,29.83,10.0,East,5.8,-,N/A,,Clear,100,2012-12-01 06:55:00
1:15 AM,41.0,30.2,65,29.83,10.0,ESE,5.8,-,N/A,,Clear,110,2012-12-01 07:15:00
1:35 AM,39.2,30.2,70,29.82,10.0,East,5.8,-,N/A,,Clear,100,2012-12-01 07:35:00
2:15 AM,39.2,30.2,70,29.80,10.0,ESE,6.9,-,N/A,,Clear,110,2012-12-01 08:15:00
2:55 AM,39.2,30.2,70,29.80,10.0,ESE,4.6,-,N/A,,Clear,110,2012-12-01 08:55:00
3:15 AM,39.2,30.2,70,29.79,10.0,ESE,3.5,-,N/A,,Clear,120,2012-12-01 09:15:00
3:35 AM,37.4,28.4,70,29.79,10.0,Calm,Calm,-,N/A,,Clear,0,2012-12-01 09:35:00
3:55 AM,35.6,26.6,70,29.78,10.0,Calm,Calm,-,N/A,,Clear,0,2012-12-01 09:55:00
4:15 AM,33.8,24.8,70,29.79,10.0,NW,3.5,-,N/A,,Clear,310,2012-12-01 10:15:00
4:35 AM,33.8,24.8,70,29.79,10.0,WNW,5.8,-,N/A,,Clear,300,2012-12-01 10:35:00
4:55 AM,33.8,26.6,75,29.78,10.0,WNW,5.8,-,N/A,,Clear,290,2012-12-01 10:55:00
5:15 AM,33.8,26.6,75,29.78,10.0,WNW,8.1,-,N/A,,Clear,290,2012-12-01 11:15:00
5:35 AM,33.8,26.6,75,29.78,10.0,West,4.6,-,N/A,,Clear,280,2012-12-01 11:35:00
6:15 AM,35.6,28.4,75,29.79,10.0,West,10.4,-,N/A,,Clear,270,2012-12-01 12:15:00
6:35 AM,35.6,28.4,75,29.79,10.0,West,9.2,-,N/A,,Clear,270,2012-12-01 12:35:00
6:55 AM,35.6,26.6,70,29.79,10.0,West,3.5,-,N/A,,Clear,270,2012-12-01 12:55:00
7:15 AM,35.6,26.6,70,29.80,10.0,West,5.8,-,N/A,,Clear,270,2012-12-01 13:15:00
7:35 AM,35.6,26.6,70,29.80,10.0,West,6.9,-,N/A,,Clear,260,2012-12-01 13:35:00
8:15 AM,41.0,30.2,65,29.81,10.0,WSW,6.9,-,N/A,,Clear,250,2012-12-01 14:15:00
8:35 AM,42.8,30.2,61,29.82,10.0,WSW,11.5,-,N/A,,Clear,250,2012-12-01 14:35:00
9:15 AM,48.2,30.2,50,29.83,10.0,West,5.8,-,N/A,,Clear,260,2012-12-01 15:15:00
9:35 AM,51.8,33.8,50,29.84,10.0,WNW,11.5,-,N/A,,Clear,290,2012-12-01 15:35:00
9:55 AM,53.6,32.0,44,29.85,10.0,WNW,11.5,-,N/A,,Clear,290,2012-12-01 15:55:00
10:15 AM,57.2,33.8,41,29.87,10.0,West,11.5,-,N/A,,Clear,280,2012-12-01 16:15:00
10:35 AM,59.0,32.0,36,29.88,8.0,NW,17.3,-,N/A,,Clear,310,2012-12-01 16:35:00
10:55 AM,62.6,32.0,32,29.87,7.0,NW,19.6,26.5,N/A,,Clear,310,2012-12-01 16:55:00
11:15 AM,62.6,30.2,30,29.87,10.0,NW,21.9,27.6,N/A,,Clear,320,2012-12-01 17:15:00
11:35 AM,60.8,28.4,29,29.87,10.0,NNW,23.0,26.5,N/A,,Clear,330,2012-12-01 17:35:00
11:55 AM,60.8,26.6,27,29.87,10.0,NNW,18.4,23.0,N/A,,Clear,330,2012-12-01 17:55:00
12:15 PM,60.8,28.4,29,29.87,10.0,NNW,17.3,-,N/A,,Clear,330,2012-12-01 18:15:00
12:35 PM,60.8,28.4,29,29.88,10.0,NW,19.6,-,N/A,,Clear,320,2012-12-01 18:35:00
12:55 PM,59.0,28.4,31,29.89,10.0,NNW,18.4,23.0,N/A,,Clear,330,2012-12-01 18:55:00
1:15 PM,60.8,28.4,29,29.88,10.0,NNW,18.4,21.9,N/A,,Clear,340,2012-12-01 19:15:00
1:35 PM,62.6,30.2,30,29.88,10.0,NNW,17.3,-,N/A,,Clear,340,2012-12-01 19:35:00
2:15 PM,64.4,33.8,32,29.88,10.0,North,16.1,23.0,N/A,,Clear,350,2012-12-01 20:15:00
2:35 PM,64.4,33.8,32,29.88,10.0,North,18.4,-,N/A,,Clear,10,2012-12-01 20:35:00
2:55 PM,62.6,33.8,34,29.89,10.0,NNE,16.1,19.6,N/A,,Clear,20,2012-12-01 20:55:00
3:15 PM,62.6,33.8,34,29.90,10.0,NNE,16.1,-,N/A,,Clear,30,2012-12-01 21:15:00
3:35 PM,62.6,33.8,34,29.90,10.0,NNE,13.8,-,N/A,,Clear,20,2012-12-01 21:35:00
3:55 PM,62.6,33.8,34,29.91,10.0,NNE,13.8,-,N/A,,Clear,20,2012-12-01 21:55:00
4:15 PM,62.6,33.8,34,29.92,10.0,NNE,9.2,-,N/A,,Clear,20,2012-12-01 22:15:00
4:35 PM,62.6,33.8,34,29.92,10.0,NNE,8.1,-,N/A,,Clear,30,2012-12-01 22:35:00
4:55 PM,60.8,33.8,36,29.93,10.0,NNE,4.6,-,N/A,,Clear,30,2012-12-01 22:55:00
5:15 PM,57.2,33.8,41,29.94,10.0,Calm,Calm,-,N/A,,Clear,0,2012-12-01 23:15:00
5:35 PM,55.4,30.2,38,29.95,10.0,Calm,Calm,-,N/A,,Clear,0,2012-12-01 23:35:00
5:55 PM,48.2,26.6,43,29.96,10.0,Calm,Calm,-,N/A,,Clear,0,2012-12-01 23:55:00
6:15 PM,46.4,28.4,50,29.96,10.0,West,4.6,-,N/A,,Clear,280,2012-12-02 00:15:00
6:35 PM,44.6,26.6,49,29.97,9.0,West,6.9,-,N/A,,Clear,270,2012-12-02 00:35:00
6:55 PM,41.0,24.8,53,29.98,5.0,WNW,10.4,-,N/A,,Clear,300,2012-12-02 00:55:00
7:15 PM,44.6,28.4,53,29.98,10.0,WNW,9.2,-,N/A,,Clear,290,2012-12-02 01:15:00
7:35 PM,42.8,26.6,53,29.99,10.0,WNW,10.4,-,N/A,,Clear,290,2012-12-02 01:35:00
7:55 PM,41.0,24.8,53,29.99,10.0,WNW,8.1,-,N/A,,Clear,290,2012-12-02 01:55:00
8:15 PM,39.2,24.8,56,30.00,10.0,West,8.1,-,N/A,,Clear,280,2012-12-02 02:15:00
8:35 PM,39.2,24.8,56,30.00,10.0,West,9.2,-,N/A,,Clear,280,2012-12-02 02:35:00
8:55 PM,39.2,26.6,61,30.01,10.0,WNW,10.4,-,N/A,,Clear,300,2012-12-02 02:55:00
9:15 PM,39.2,26.6,61,30.01,10.0,WNW,9.2,-,N/A,,Clear,290,2012-12-02 03:15:00
9:35 PM,37.4,24.8,60,30.01,10.0,WNW,5.8,-,N/A,,Clear,290,2012-12-02 03:35:00
9:55 PM,37.4,24.8,60,30.01,10.0,WNW,8.1,-,N/A,,Clear,290,2012-12-02 03:55:00
10:15 PM,39.2,24.8,56,30.01,10.0,WNW,4.6,-,N/A,,Clear,300,2012-12-02 04:15:00
10:35 PM,37.4,24.8,60,30.01,10.0,WNW,4.6,-,N/A,,Clear,300,2012-12-02 04:35:00
10:55 PM,37.4,23.0,56,30.01,10.0,West,6.9,-,N/A,,Clear,280,2012-12-02 04:55:00
11:15 PM,35.6,23.0,60,30.02,10.0,West,8.1,-,N/A,,Clear,280,2012-12-02 05:15:00
11:35 PM,35.6,24.8,65,30.02,10.0,West,9.2,-,N/A,,Clear,280,2012-12-02 05:35:00
11:55 PM,37.4,24.8,60,30.02,10.0,WNW,4.6,-,N/A,,Clear,290,2012-12-02 05:55:00